createdAt,value
2023-02-15T00:00:20.854Z,20.37
2023-02-15T00:02:47.705Z,16.60
2023-02-15T00:05:14.505Z,25.03
2023-02-15T00:07:41.204Z,19.40
2023-02-15T00:10:09.498Z,20.73
2023-02-15T00:12:36.303Z,19.53
2023-02-15T00:15:03.069Z,22.00
2023-02-15T00:17:30.230Z,15.77
2023-02-15T00:19:56.997Z,18.90
2023-02-15T00:22:23.758Z,18.50
2023-02-15T00:24:51.134Z,21.33
2023-02-15T00:27:17.954Z,21.17
2023-02-15T00:29:44.734Z,18.43
2023-02-15T00:32:30.059Z,20.40
2023-02-15T00:34:56.807Z,15.07
2023-02-15T00:37:24.640Z,17.13
2023-02-15T00:40:28.861Z,16.37
2023-02-15T00:42:55.622Z,14.63
2023-02-15T00:45:22.358Z,19.50
2023-02-15T00:48:07.736Z,18.30
2023-02-15T00:50:34.491Z,22.17
2023-02-15T00:53:01.187Z,16.67
2023-02-15T00:55:27.948Z,15.47
2023-02-15T00:57:56.819Z,15.17
2023-02-15T01:00:44.605Z,17.97
2023-02-15T01:03:12.267Z,13.07
2023-02-15T01:05:39.498Z,9.93
2023-02-15T01:08:06.800Z,16.13
2023-02-15T01:10:34.870Z,13.70
2023-02-15T01:13:01.953Z,12.67
2023-02-15T01:15:47.750Z,18.10
2023-02-15T01:18:14.527Z,14.77
2023-02-15T01:20:42.579Z,18.50
2023-02-15T01:23:09.970Z,15.00
2023-02-15T01:25:37.444Z,17.30
2023-02-15T01:28:04.721Z,10.27
2023-02-15T01:30:33.488Z,20.87
2023-02-15T01:33:01.854Z,16.73
2023-02-15T01:35:31.392Z,15.53
2023-02-15T01:37:58.458Z,13.73
2023-02-15T01:40:26.027Z,13.93
2023-02-15T01:42:54.310Z,20.50
2023-02-15T01:45:28.472Z,18.43
2023-02-15T01:48:17.984Z,12.00
2023-02-15T01:50:50.874Z,19.67
2023-02-15T01:53:42.324Z,18.60
2023-02-15T01:56:16.071Z,17.37
2023-02-15T01:58:46.483Z,16.37
2023-02-15T02:01:13.272Z,18.47
2023-02-15T02:03:44.632Z,16.70
2023-02-15T02:06:11.945Z,17.17
2023-02-15T02:08:41.169Z,13.27
2023-02-15T02:11:16.496Z,13.30
2023-02-15T02:13:47.688Z,10.03
2023-02-15T02:16:55.436Z,13.33
2023-02-15T02:19:55.200Z,13.40
2023-02-15T02:22:24.493Z,13.77
2023-02-15T02:25:14.375Z,13.97
2023-02-15T02:28:05.340Z,14.37
2023-02-15T02:30:48.622Z,10.53
2023-02-15T02:33:33.437Z,23.00
2023-02-15T02:36:26.551Z,15.57
2023-02-15T02:39:25.299Z,20.50
2023-02-15T02:42:02.164Z,11.23
2023-02-15T02:44:48.955Z,17.10
2023-02-15T02:47:39.143Z,16.30
2023-02-15T02:50:14.033Z,17.40
2023-02-15T02:52:47.537Z,13.13
2023-02-15T02:55:18.700Z,11.13
2023-02-15T02:58:40.697Z,12.97
2023-02-15T03:01:16.806Z,18.30
2023-02-15T03:03:50.833Z,17.77
2023-02-15T03:06:21.126Z,15.43
2023-02-15T03:09:33.641Z,16.47
2023-02-15T03:12:00.473Z,12.17
2023-02-15T03:14:27.260Z,15.23
2023-02-15T03:16:55.972Z,11.50
2023-02-15T03:19:28.033Z,15.97
2023-02-15T03:22:10.501Z,12.80
2023-02-15T03:24:45.301Z,15.77
2023-02-15T03:27:18.709Z,11.77
2023-02-15T03:29:55.429Z,14.60
2023-02-15T03:32:24.003Z,16.73
2023-02-15T03:34:51.349Z,14.57
2023-02-15T03:37:36.565Z,16.70
2023-02-15T03:40:39.203Z,16.43
2023-02-15T03:43:19.596Z,19.03
2023-02-15T03:45:56.667Z,12.00
2023-02-15T03:48:28.468Z,14.80
2023-02-15T03:51:19.029Z,12.37
2023-02-15T03:53:48.402Z,18.60
2023-02-15T03:56:15.120Z,9.20
2023-02-15T03:59:00.356Z,15.00
2023-02-15T04:02:04.504Z,10.47
2023-02-15T04:04:39.715Z,11.93
2023-02-15T04:07:09.356Z,10.23
2023-02-15T04:09:55.222Z,14.70
2023-02-15T04:12:22.021Z,16.93
2023-02-15T04:15:07.325Z,17.00
2023-02-15T04:20:37.204Z,21.03
2023-02-15T04:23:25.931Z,11.47
2023-02-15T04:25:52.774Z,18.53
2023-02-15T04:28:19.599Z,13.77
2023-02-15T04:30:47.606Z,21.30
2023-02-15T04:33:33.123Z,20.27
2023-02-15T04:36:00.251Z,22.40
2023-02-15T04:38:27.242Z,25.63
2023-02-15T04:40:54.051Z,23.67
2023-02-15T04:43:20.960Z,19.77
2023-02-15T04:45:52.248Z,20.97
2023-02-15T04:48:19.148Z,21.43
2023-02-15T04:50:46.019Z,24.33
2023-02-15T04:53:31.041Z,26.57
2023-02-15T04:55:57.757Z,18.33
2023-02-15T04:58:24.694Z,24.50
2023-02-15T05:00:51.532Z,21.93
2023-02-15T05:03:19.676Z,25.67
2023-02-15T05:05:46.455Z,17.70
2023-02-15T05:08:13.190Z,23.07
2023-02-15T05:10:39.941Z,21.00
2023-02-15T05:13:06.749Z,20.87
2023-02-15T05:15:33.451Z,20.53
2023-02-15T05:18:00.239Z,26.80
2023-02-15T05:20:26.940Z,24.83
2023-02-15T05:22:56.494Z,25.10
2023-02-15T05:25:55.742Z,23.00
2023-02-15T05:28:24.428Z,27.23
2023-02-15T05:31:00.561Z,21.37
2023-02-15T05:33:27.411Z,20.73
2023-02-15T05:35:54.158Z,18.73
2023-02-15T05:38:20.967Z,22.90
2023-02-15T05:40:49.859Z,20.50
2023-02-15T05:43:17.012Z,24.43
2023-02-15T05:45:51.767Z,20.67
2023-02-15T05:48:20.379Z,19.47
2023-02-15T05:50:47.405Z,24.50
2023-02-15T05:53:14.301Z,23.13
2023-02-15T05:55:41.835Z,22.77
2023-02-15T05:58:08.931Z,24.87
2023-02-15T06:00:38.096Z,21.80
2023-02-15T06:03:05.049Z,25.60
2023-02-15T06:05:31.844Z,18.50
2023-02-15T06:07:58.592Z,24.30
2023-02-15T06:10:25.375Z,17.67
2023-02-15T06:12:52.096Z,19.90
2023-02-15T06:15:18.944Z,19.80
2023-02-15T06:17:45.770Z,20.47
2023-02-15T06:20:13.240Z,24.43
2023-02-15T06:22:40.080Z,16.73
2023-02-15T06:25:06.954Z,25.07
2023-02-15T06:27:33.803Z,22.73
2023-02-15T06:30:00.573Z,22.77
2023-02-15T06:32:27.374Z,23.50
2023-02-15T06:34:54.217Z,23.83
2023-02-15T06:37:20.896Z,28.23
2023-02-15T06:39:47.673Z,29.60
2023-02-15T06:42:14.446Z,36.97
2023-02-15T06:44:41.172Z,25.33
2023-02-15T06:47:07.884Z,21.63
2023-02-15T06:49:34.623Z,26.70
2023-02-15T06:52:01.347Z,19.17
2023-02-15T06:54:28.074Z,19.70
2023-02-15T06:57:13.468Z,19.90
2023-02-15T06:59:40.221Z,22.50
2023-02-15T07:02:07.204Z,16.80
2023-02-15T07:07:36.465Z,16.73
2023-02-15T07:10:04.734Z,25.50
2023-02-15T07:12:43.622Z,18.87
2023-02-15T07:15:16.260Z,23.27
2023-02-15T07:17:43.686Z,18.90
2023-02-15T07:20:16.260Z,31.13
2023-02-15T07:22:43.911Z,16.83
2023-02-15T07:25:12.255Z,16.87
2023-02-15T07:27:39.658Z,20.73
2023-02-15T07:30:08.036Z,18.27
2023-02-15T07:33:24.859Z,20.23
2023-02-15T07:35:58.811Z,16.87
2023-02-15T07:38:31.581Z,21.43
2023-02-15T07:41:15.052Z,19.57
2023-02-15T07:43:44.360Z,14.93
2023-02-15T07:46:14.262Z,19.40
2023-02-15T07:48:42.527Z,15.57
2023-02-15T07:51:10.992Z,16.10
2023-02-15T07:53:38.970Z,11.77
2023-02-15T07:56:11.388Z,15.83
2023-02-15T07:58:53.829Z,17.73
2023-02-15T08:01:30.874Z,15.73
2023-02-15T08:03:58.088Z,13.23
2023-02-15T08:06:28.400Z,10.17
2023-02-15T08:08:55.238Z,14.80
2023-02-15T08:11:29.820Z,14.60
2023-02-15T08:14:00.297Z,16.90
2023-02-15T08:16:50.489Z,18.93
2023-02-15T08:19:31.618Z,18.57
2023-02-15T08:21:59.638Z,16.77
2023-02-15T08:24:28.543Z,15.57
2023-02-15T08:26:55.999Z,18.93
2023-02-15T08:29:28.408Z,14.83
2023-02-15T08:32:03.104Z,15.13
2023-02-15T08:34:34.018Z,17.73
2023-02-15T08:37:01.618Z,17.03
2023-02-15T08:39:28.693Z,15.63
2023-02-15T08:41:56.040Z,19.17
2023-02-15T08:44:23.514Z,16.20
2023-02-15T08:46:50.701Z,14.77
2023-02-15T08:49:22.609Z,12.30
2023-02-15T08:51:50.568Z,11.50
2023-02-15T08:54:19.989Z,24.43
2023-02-15T08:56:47.334Z,18.40
2023-02-15T08:59:20.162Z,12.77
2023-02-15T09:01:48.099Z,16.33
2023-02-15T09:04:16.687Z,18.30
2023-02-15T09:06:46.976Z,9.83
2023-02-15T09:09:15.541Z,16.60
2023-02-15T09:11:45.336Z,14.27
2023-02-15T09:14:30.455Z,12.63
2023-02-15T09:16:57.560Z,14.33
2023-02-15T09:19:24.813Z,15.20
2023-02-15T09:21:52.500Z,15.27
2023-02-15T09:24:19.660Z,12.20
2023-02-15T09:26:48.443Z,16.13
2023-02-15T09:29:17.234Z,20.70
2023-02-15T09:31:47.302Z,17.53
2023-02-15T09:34:19.059Z,15.07
2023-02-15T09:36:46.729Z,16.67
2023-02-15T09:39:26.786Z,13.40
2023-02-15T09:41:56.087Z,12.90
2023-02-15T09:44:50.362Z,17.27
2023-02-15T09:48:05.990Z,14.40
2023-02-15T09:50:48.050Z,14.53
2023-02-15T09:53:17.430Z,18.73
2023-02-15T09:56:11.215Z,17.00
2023-02-15T09:58:55.204Z,14.37
2023-02-15T10:01:44.928Z,19.27
2023-02-15T10:04:26.864Z,17.60
2023-02-15T10:07:09.949Z,19.17
2023-02-15T10:09:52.788Z,19.93
2023-02-15T10:12:31.445Z,15.83
2023-02-15T10:15:12.828Z,14.73
2023-02-15T10:18:01.567Z,12.13
2023-02-15T10:23:58.547Z,14.50
2023-02-15T10:26:34.447Z,11.47
2023-02-15T10:29:10.507Z,12.90
2023-02-15T10:31:54.242Z,14.30
2023-02-15T10:34:27.210Z,13.70
2023-02-15T10:37:12.099Z,15.30
2023-02-15T10:40:11.847Z,16.13
2023-02-15T10:42:41.520Z,11.60
2023-02-15T10:45:13.998Z,11.70
2023-02-15T10:47:58.548Z,15.70
2023-02-15T10:50:28.226Z,15.80
2023-02-15T10:53:10.589Z,16.58
2023-02-15T10:55:53.559Z,14.57
2023-02-15T10:58:45.817Z,9.82
2023-02-15T11:01:35.723Z,18.23
2023-02-15T11:04:08.250Z,15.83
2023-02-15T11:06:37.895Z,11.93
2023-02-15T11:09:14.248Z,12.30
2023-02-15T11:11:45.956Z,13.88
2023-02-15T11:14:22.849Z,14.27
2023-02-15T11:16:58.022Z,17.73
2023-02-15T11:19:33.206Z,13.80
2023-02-15T11:22:06.618Z,16.33
2023-02-15T11:24:42.065Z,14.93
2023-02-15T11:27:31.477Z,15.23
2023-02-15T11:30:30.857Z,20.33
2023-02-15T11:33:02.997Z,12.80
2023-02-15T11:35:29.844Z,11.57
2023-02-15T11:38:13.085Z,14.20
2023-02-15T11:40:49.897Z,13.63
2023-02-15T11:43:38.981Z,13.13
2023-02-15T11:46:06.537Z,14.70
2023-02-15T11:51:23.765Z,14.40
2023-02-15T11:53:52.678Z,18.05
2023-02-15T11:56:23.480Z,18.08
2023-02-15T11:59:19.754Z,11.27
2023-02-15T12:01:48.248Z,13.40
2023-02-15T12:04:34.000Z,15.70
2023-02-15T12:07:13.405Z,12.35
2023-02-15T12:09:51.978Z,13.40
2023-02-15T12:12:27.190Z,11.68
2023-02-15T12:15:15.352Z,13.85
2023-02-15T12:18:00.960Z,9.63
2023-02-15T12:20:33.682Z,9.82
2023-02-15T12:23:03.372Z,10.82
2023-02-15T12:25:52.050Z,7.90
2023-02-15T12:28:21.906Z,12.40
2023-02-15T12:30:48.804Z,10.32
2023-02-15T12:33:36.970Z,10.63
2023-02-15T12:36:25.069Z,11.20
2023-02-15T12:39:13.453Z,12.23
2023-02-15T12:41:47.191Z,9.13
2023-02-15T12:44:20.025Z,11.75
2023-02-15T12:47:08.261Z,10.82
2023-02-15T12:49:37.393Z,8.95
2023-02-15T12:52:09.913Z,8.68
2023-02-15T12:54:41.993Z,8.05
2023-02-15T12:57:24.110Z,7.90
2023-02-15T12:59:56.856Z,11.05
2023-02-15T13:02:29.038Z,9.45
2023-02-15T13:04:57.060Z,11.32
2023-02-15T13:07:26.180Z,13.40
2023-02-15T13:09:53.265Z,9.93
2023-02-15T13:12:27.568Z,15.10
2023-02-15T13:14:56.106Z,9.57
2023-02-15T13:17:30.541Z,7.78
2023-02-15T13:22:49.038Z,14.38
2023-02-15T13:25:22.224Z,8.85
2023-02-15T13:27:54.278Z,12.80
2023-02-15T13:30:35.077Z,8.38
2023-02-15T13:33:33.236Z,6.80
2023-02-15T13:36:08.840Z,8.52
2023-02-15T13:38:52.919Z,10.55
2023-02-15T13:41:36.684Z,10.80
2023-02-15T13:44:16.687Z,11.88
2023-02-15T13:46:53.041Z,4.88
2023-02-15T13:49:57.661Z,8.55
2023-02-15T13:52:27.869Z,6.53
2023-02-15T13:55:22.273Z,4.13
2023-02-15T13:58:02.849Z,5.88
2023-02-15T14:00:51.485Z,5.75
2023-02-15T14:03:18.241Z,3.15
2023-02-15T14:06:26.426Z,3.47
2023-02-15T14:09:14.651Z,4.90
2023-02-15T14:12:23.400Z,2.60
2023-02-15T14:15:27.378Z,4.55
2023-02-15T14:17:54.221Z,4.28
2023-02-15T14:20:28.354Z,5.35
2023-02-15T14:23:17.372Z,6.03
2023-02-15T14:25:52.129Z,3.75
2023-02-15T14:28:52.131Z,1.80
2023-02-15T14:31:23.528Z,2.72
2023-02-15T14:33:58.296Z,6.38
2023-02-15T14:36:28.931Z,5.50
2023-02-15T14:39:07.350Z,2.47
2023-02-15T14:41:54.792Z,3.03
2023-02-15T14:44:38.824Z,3.42
2023-02-15T14:47:09.008Z,2.60
2023-02-15T14:49:40.541Z,4.22
2023-02-15T14:52:09.607Z,2.58
2023-02-15T14:54:36.293Z,3.92
2023-02-15T14:57:03.091Z,1.15
2023-02-15T14:59:53.516Z,6.95
2023-02-15T15:02:53.424Z,2.10
2023-02-15T15:05:36.558Z,1.02
2023-02-15T15:08:05.937Z,1.08
2023-02-15T15:10:47.977Z,1.55
2023-02-15T15:13:33.299Z,2.08
2023-02-15T15:16:31.619Z,1.00
2023-02-15T15:18:59.720Z,1.85
2023-02-15T15:21:47.848Z,1.45
2023-02-15T15:24:54.737Z,1.88
2023-02-15T15:27:45.954Z,2.88
2023-02-15T15:30:15.922Z,0.98
2023-02-15T15:32:54.754Z,2.40
2023-02-15T15:36:08.735Z,2.63
2023-02-15T15:39:42.115Z,1.98
2023-02-15T15:42:33.097Z,0.67
2023-02-15T15:45:30.391Z,1.52
2023-02-15T15:48:12.623Z,1.88
2023-02-15T15:50:43.535Z,2.85
2023-02-15T15:53:25.766Z,1.25
2023-02-15T15:56:00.462Z,0.30
2023-02-15T15:58:28.079Z,0.55
2023-02-15T16:01:04.539Z,1.05
2023-02-15T16:03:31.468Z,2.42
2023-02-15T16:06:01.586Z,1.27
2023-02-15T16:08:32.253Z,2.15
2023-02-15T16:11:01.012Z,1.42
2023-02-15T16:13:27.955Z,0.75
2023-02-15T16:15:57.370Z,1.27
2023-02-15T16:18:27.664Z,3.47
2023-02-15T16:21:02.425Z,0.70
2023-02-15T16:24:04.548Z,1.75
2023-02-15T16:26:56.750Z,3.10
2023-02-15T16:29:32.034Z,6.03
2023-02-15T16:32:06.843Z,3.78
2023-02-15T16:34:34.304Z,2.63
2023-02-15T16:37:14.859Z,0.80
2023-02-15T16:39:43.358Z,1.80
2023-02-15T16:42:12.632Z,1.95
2023-02-15T16:44:41.422Z,4.35
2023-02-15T16:47:30.722Z,1.07
2023-02-15T16:50:02.018Z,1.97
2023-02-15T16:52:48.614Z,2.30
2023-02-15T16:55:32.936Z,1.33
2023-02-15T16:58:23.556Z,1.37
2023-02-15T17:00:50.470Z,0.43
2023-02-15T17:03:18.995Z,3.80
2023-02-15T17:05:45.725Z,2.08
2023-02-15T17:08:49.829Z,2.67
2023-02-15T17:12:13.311Z,3.55
2023-02-15T17:14:41.043Z,5.07
2023-02-15T17:17:13.279Z,6.22
2023-02-15T17:19:50.195Z,4.30
2023-02-15T17:22:23.741Z,3.40
2023-02-15T17:24:58.782Z,2.13
2023-02-15T17:27:28.524Z,6.50
2023-02-15T17:30:15.722Z,4.80
2023-02-15T17:32:59.381Z,2.93
2023-02-15T17:35:32.022Z,8.37
2023-02-15T17:38:15.964Z,8.80
2023-02-15T17:40:42.818Z,7.93
2023-02-15T17:43:09.518Z,6.30
2023-02-15T17:45:49.371Z,3.47
2023-02-15T17:48:31.674Z,4.90
2023-02-15T17:51:18.781Z,3.00
2023-02-15T17:54:05.709Z,2.53
2023-02-15T17:56:33.963Z,6.23
2023-02-15T17:59:00.703Z,6.60
2023-02-15T18:02:06.210Z,8.60
2023-02-15T18:04:55.802Z,5.97
2023-02-15T18:07:41.482Z,9.20
2023-02-15T18:10:34.983Z,3.97
2023-02-15T18:13:01.745Z,2.70
2023-02-15T18:15:47.313Z,3.77
2023-02-15T18:18:32.741Z,3.47
2023-02-15T18:20:59.565Z,4.70
2023-02-15T18:23:26.401Z,4.32
2023-02-15T18:28:37.526Z,2.20
2023-02-15T18:31:05.391Z,5.57
2023-02-15T18:34:00.706Z,4.33
2023-02-15T18:36:32.818Z,7.27
2023-02-15T18:39:03.800Z,6.10
2023-02-15T18:41:32.559Z,6.23
2023-02-15T18:43:59.281Z,4.77
2023-02-15T18:46:26.082Z,5.30
2023-02-15T18:48:52.825Z,2.60
2023-02-15T18:51:21.783Z,6.87
2023-02-15T18:54:15.736Z,4.97
2023-02-15T18:56:42.524Z,3.50
2023-02-15T18:59:16.486Z,7.93
2023-02-15T19:01:43.488Z,5.07
2023-02-15T19:04:10.307Z,3.07
2023-02-15T19:06:40.335Z,5.23
2023-02-15T19:09:12.856Z,7.70
2023-02-15T19:11:39.633Z,3.43
2023-02-15T19:14:06.518Z,6.37
2023-02-15T19:16:36.438Z,5.77
2023-02-15T19:19:04.045Z,4.07
2023-02-15T19:21:32.780Z,6.83
2023-02-15T19:24:07.338Z,8.90
2023-02-15T19:26:45.585Z,10.03
2023-02-15T19:29:15.668Z,4.40
2023-02-15T19:31:42.810Z,10.10
2023-02-15T19:34:15.769Z,4.00
2023-02-15T19:36:44.679Z,5.50
2023-02-15T19:39:37.590Z,5.40
2023-02-15T19:42:05.481Z,7.77
2023-02-15T19:44:32.293Z,5.45
2023-02-15T19:46:59.066Z,4.70
2023-02-15T19:49:25.835Z,4.65
2023-02-15T19:54:37.416Z,4.78
2023-02-15T19:59:48.618Z,6.97
2023-02-15T20:02:18.074Z,9.80
2023-02-15T20:04:44.921Z,7.17
2023-02-15T20:07:29.941Z,6.27
2023-02-15T20:09:56.724Z,7.03
2023-02-15T20:12:26.134Z,6.97
2023-02-15T20:14:53.437Z,7.93
2023-02-15T20:17:20.291Z,5.30
2023-02-15T20:19:47.173Z,10.10
2023-02-15T20:22:25.990Z,7.30
2023-02-15T20:24:56.246Z,6.57
2023-02-15T20:27:24.238Z,4.93
2023-02-15T20:29:51.230Z,5.97
2023-02-15T20:32:18.130Z,3.97
2023-02-15T20:34:45.146Z,7.97
2023-02-15T20:37:34.036Z,3.70
2023-02-15T20:40:01.022Z,8.17
2023-02-15T20:42:27.709Z,7.13
2023-02-15T20:44:54.650Z,2.55
2023-02-15T20:47:21.332Z,6.45
2023-02-15T20:49:48.106Z,7.50
2023-02-15T20:52:20.593Z,11.13
2023-02-15T20:54:47.466Z,7.30
2023-02-15T20:57:14.676Z,8.65
2023-02-15T20:59:41.715Z,6.53
2023-02-15T21:02:37.091Z,7.80
2023-02-15T21:05:32.838Z,9.00
2023-02-15T21:08:00.578Z,6.80
2023-02-15T21:10:30.717Z,7.33
2023-02-15T21:15:44.494Z,6.67
2023-02-15T21:18:23.868Z,6.90
2023-02-15T21:20:53.799Z,8.37
2023-02-15T21:23:26.002Z,3.00
2023-02-15T21:25:56.075Z,5.60
2023-02-15T21:28:25.703Z,9.10
2023-02-15T21:30:53.743Z,11.53
2023-02-15T21:33:20.928Z,9.43
2023-02-15T21:35:51.691Z,6.10
2023-02-15T21:38:22.044Z,8.70
2023-02-15T21:40:49.793Z,8.97
2023-02-15T21:43:39.123Z,7.10
2023-02-15T21:46:43.009Z,7.00
2023-02-15T21:49:10.833Z,6.68
2023-02-15T21:51:56.537Z,7.78
2023-02-15T21:57:14.634Z,11.52
2023-02-15T21:59:44.665Z,5.35
2023-02-15T22:02:41.900Z,6.50
2023-02-15T22:05:18.745Z,6.47
2023-02-15T22:07:46.135Z,8.40
2023-02-15T22:10:12.892Z,10.23
2023-02-15T22:15:29.147Z,7.27
2023-02-15T22:17:55.938Z,4.70
2023-02-15T22:20:24.437Z,7.18
2023-02-15T22:22:51.956Z,8.45
2023-02-15T22:25:27.097Z,3.30
2023-02-15T22:27:55.084Z,4.93
2023-02-15T22:30:26.486Z,5.50
2023-02-15T22:32:55.472Z,8.52
2023-02-15T22:35:26.259Z,8.07
2023-02-15T22:37:53.104Z,7.72
2023-02-15T22:40:21.295Z,4.93
2023-02-15T22:42:50.982Z,3.97
2023-02-15T22:45:20.882Z,7.38
2023-02-15T22:47:50.426Z,4.57
2023-02-15T22:50:23.617Z,9.10
2023-02-15T22:52:50.933Z,8.50
2023-02-15T22:55:19.739Z,3.87
2023-02-15T22:57:49.024Z,6.87
2023-02-15T23:00:25.002Z,5.70
2023-02-15T23:02:52.944Z,4.25
2023-02-15T23:05:38.371Z,6.37
2023-02-15T23:08:05.308Z,9.45
2023-02-15T23:10:32.034Z,6.63
2023-02-15T23:13:19.351Z,6.20
2023-02-15T23:15:49.187Z,2.03
2023-02-15T23:18:18.589Z,3.70
2023-02-15T23:20:48.102Z,5.27
2023-02-15T23:23:15.469Z,5.43
2023-02-15T23:25:42.453Z,3.80
2023-02-15T23:28:22.226Z,2.60
2023-02-15T23:31:23.882Z,5.57
2023-02-15T23:33:51.516Z,4.65
2023-02-15T23:36:21.240Z,5.60
2023-02-15T23:38:48.015Z,4.83
2023-02-15T23:41:21.805Z,5.60
2023-02-15T23:43:59.407Z,4.40
2023-02-15T23:46:33.058Z,3.83
2023-02-15T23:48:59.923Z,3.33
2023-02-15T23:51:31.875Z,4.30
2023-02-15T23:53:58.768Z,3.73
2023-02-15T23:56:25.754Z,3.43
2023-02-15T23:58:52.626Z,3.50
